createdAt,value
2023-04-20T00:00:30.821Z,5.88
2023-04-20T00:02:57.286Z,5.10
2023-04-20T00:05:24.287Z,4.30
2023-04-20T00:07:50.728Z,4.72
2023-04-20T00:10:17.086Z,5.10
2023-04-20T00:12:44.871Z,5.07
2023-04-20T00:15:11.708Z,4.80
2023-04-20T00:17:38.281Z,6.00
2023-04-20T00:20:06.133Z,5.25
2023-04-20T00:22:32.515Z,5.20
2023-04-20T00:24:58.973Z,4.97
2023-04-20T00:27:25.458Z,5.35
2023-04-20T00:29:53.166Z,5.07
2023-04-20T00:32:19.535Z,5.00
2023-04-20T00:34:45.937Z,4.65
2023-04-20T00:37:12.343Z,5.45
2023-04-20T00:39:38.802Z,5.25
2023-04-20T00:42:05.594Z,5.22
2023-04-20T00:44:32.024Z,5.22
2023-04-20T00:46:59.867Z,4.97
2023-04-20T00:49:28.376Z,5.13
2023-04-20T00:51:54.802Z,5.05
2023-04-20T00:54:21.610Z,5.07
2023-04-20T00:56:48.928Z,4.90
2023-04-20T00:59:16.697Z,4.43
2023-04-20T01:01:43.292Z,5.47
2023-04-20T01:04:11.406Z,5.40
2023-04-20T01:06:38.052Z,5.22
2023-04-20T01:09:04.645Z,5.00
2023-04-20T01:11:31.072Z,5.22
2023-04-20T01:13:57.427Z,4.72
2023-04-20T01:16:23.908Z,5.32
2023-04-20T01:18:50.999Z,5.97
2023-04-20T01:21:20.528Z,5.28
2023-04-20T01:23:48.331Z,5.10
2023-04-20T01:26:16.057Z,5.18
2023-04-20T01:28:42.869Z,5.38
2023-04-20T01:31:09.957Z,4.50
2023-04-20T01:33:36.554Z,5.03
2023-04-20T01:36:03.544Z,4.82
2023-04-20T01:38:30.455Z,5.10
2023-04-20T01:40:58.582Z,4.30
2023-04-20T01:43:25.203Z,5.15
2023-04-20T01:45:51.570Z,4.88
2023-04-20T01:48:17.971Z,5.15
2023-04-20T01:50:44.418Z,5.10
2023-04-20T01:53:10.812Z,5.55
2023-04-20T01:55:37.198Z,5.15
2023-04-20T01:58:04.933Z,4.40
2023-04-20T02:00:31.359Z,5.10
2023-04-20T02:02:57.949Z,4.75
2023-04-20T02:05:24.850Z,4.90
2023-04-20T02:07:51.244Z,4.95
2023-04-20T02:10:17.826Z,4.93
2023-04-20T02:12:44.490Z,4.90
2023-04-20T02:15:12.731Z,5.25
2023-04-20T02:17:39.192Z,5.15
2023-04-20T02:20:06.827Z,4.82
2023-04-20T02:22:33.235Z,5.63
2023-04-20T02:24:59.635Z,6.18
2023-04-20T02:27:25.998Z,6.78
2023-04-20T02:29:52.851Z,6.38
2023-04-20T02:32:20.602Z,5.88
2023-04-20T02:34:47.061Z,6.55
2023-04-20T02:37:13.437Z,6.70
2023-04-20T02:39:39.898Z,6.25
2023-04-20T02:42:06.276Z,6.28
2023-04-20T02:44:32.661Z,5.97
2023-04-20T02:46:59.080Z,5.72
2023-04-20T02:49:26.822Z,6.60
2023-04-20T02:51:53.190Z,6.30
2023-04-20T02:54:19.604Z,7.47
2023-04-20T02:56:46.030Z,6.50
2023-04-20T02:59:12.398Z,7.10
2023-04-20T03:01:38.823Z,5.93
2023-04-20T03:04:05.442Z,6.20
2023-04-20T03:06:33.371Z,6.65
2023-04-20T03:08:59.954Z,5.82
2023-04-20T03:11:26.360Z,6.70
2023-04-20T03:13:52.729Z,6.07
2023-04-20T03:16:19.383Z,7.20
2023-04-20T03:18:45.795Z,6.82
2023-04-20T03:21:12.220Z,5.72
2023-04-20T03:23:39.922Z,7.68
2023-04-20T03:26:06.270Z,6.47
2023-04-20T03:28:32.646Z,6.60
2023-04-20T03:30:59.016Z,6.72
2023-04-20T03:33:25.402Z,6.30
2023-04-20T03:35:51.752Z,6.45
2023-04-20T03:38:18.134Z,6.75
2023-04-20T03:40:45.834Z,6.50
2023-04-20T03:43:12.210Z,5.97
2023-04-20T03:45:38.716Z,6.72
2023-04-20T03:48:05.548Z,6.30
2023-04-20T03:50:32.062Z,6.70
2023-04-20T03:52:58.474Z,7.22
2023-04-20T03:55:24.849Z,7.22
2023-04-20T03:57:54.258Z,7.03
2023-04-20T04:00:20.911Z,7.93
2023-04-20T04:02:47.410Z,6.82
2023-04-20T04:05:14.048Z,6.63
2023-04-20T04:07:40.573Z,7.07
2023-04-20T04:10:07.917Z,7.28
2023-04-20T04:12:34.303Z,7.13
2023-04-20T04:15:02.240Z,7.45
2023-04-20T04:17:28.630Z,7.32
2023-04-20T04:19:55.035Z,6.88
2023-04-20T04:22:21.566Z,6.88
2023-04-20T04:24:47.941Z,7.07
2023-04-20T04:27:14.343Z,8.70
2023-04-20T04:29:40.755Z,6.97
2023-04-20T04:32:08.451Z,7.15
2023-04-20T04:34:34.897Z,7.60
2023-04-20T04:37:01.285Z,7.80
2023-04-20T04:39:28.295Z,7.22
2023-04-20T04:41:54.694Z,7.43
2023-04-20T04:44:21.140Z,6.72
2023-04-20T04:46:47.781Z,7.43
2023-04-20T04:49:15.631Z,8.07
2023-04-20T04:51:42.088Z,7.15
2023-04-20T04:54:08.556Z,7.93
2023-04-20T04:56:34.923Z,8.15
2023-04-20T04:59:01.344Z,7.40
2023-04-20T05:01:27.737Z,7.82
2023-04-20T05:03:54.360Z,7.13
2023-04-20T05:06:22.214Z,8.15
2023-04-20T05:08:48.593Z,8.15
2023-04-20T05:11:15.015Z,7.70
2023-04-20T05:13:41.426Z,7.88
2023-04-20T05:16:07.945Z,8.00
2023-04-20T05:18:34.348Z,8.52
2023-04-20T05:21:00.760Z,7.65
2023-04-20T05:23:28.488Z,7.20
2023-04-20T05:25:54.866Z,6.45
2023-04-20T05:28:21.325Z,6.93
2023-04-20T05:30:47.734Z,6.90
2023-04-20T05:33:14.141Z,6.93
2023-04-20T05:35:40.564Z,8.50
2023-04-20T05:38:07.104Z,7.38
2023-04-20T05:40:34.849Z,7.10
2023-04-20T05:43:01.257Z,7.35
2023-04-20T05:45:27.876Z,7.35
2023-04-20T05:47:55.125Z,6.93
2023-04-20T05:50:22.164Z,7.88
2023-04-20T05:52:48.832Z,8.05
2023-04-20T05:55:17.938Z,8.07
2023-04-20T05:57:46.683Z,8.13
2023-04-20T06:00:15.172Z,7.63
2023-04-20T06:02:42.551Z,8.52
2023-04-20T06:05:10.341Z,7.45
2023-04-20T06:07:37.401Z,7.13
2023-04-20T06:10:05.073Z,7.60
2023-04-20T06:12:31.858Z,8.10
2023-04-20T06:15:00.054Z,7.25
2023-04-20T06:17:26.567Z,8.57
2023-04-20T06:19:53.061Z,7.55
2023-04-20T06:22:19.833Z,8.23
2023-04-20T06:24:46.280Z,8.25
2023-04-20T06:27:13.001Z,7.55
2023-04-20T06:29:39.419Z,8.77
2023-04-20T06:32:07.159Z,7.20
2023-04-20T06:34:33.607Z,7.60
2023-04-20T06:36:59.968Z,7.82
2023-04-20T06:39:26.317Z,7.60
2023-04-20T06:41:52.736Z,8.02
2023-04-20T06:44:19.092Z,8.32
2023-04-20T06:46:45.533Z,7.88
2023-04-20T06:49:13.295Z,7.95
2023-04-20T06:51:39.672Z,8.57
2023-04-20T06:54:06.158Z,8.18
2023-04-20T06:56:34.909Z,7.97
2023-04-20T06:59:01.897Z,9.07
2023-04-20T07:01:28.392Z,8.90
2023-04-20T07:03:55.064Z,7.78
2023-04-20T07:06:23.004Z,7.07
2023-04-20T07:08:49.378Z,8.25
2023-04-20T07:11:15.905Z,8.45
2023-04-20T07:13:42.286Z,7.90
2023-04-20T07:16:09.092Z,8.85
2023-04-20T07:18:35.803Z,8.32
2023-04-20T07:21:02.357Z,8.55
2023-04-20T07:23:30.052Z,9.13
2023-04-20T07:25:56.612Z,8.35
2023-04-20T07:28:23.055Z,8.68
2023-04-20T07:30:49.421Z,8.43
2023-04-20T07:33:15.808Z,8.93
2023-04-20T07:35:42.178Z,9.30
2023-04-20T07:38:08.656Z,8.52
2023-04-20T07:40:36.677Z,8.27
2023-04-20T07:43:03.107Z,7.93
2023-04-20T07:45:29.777Z,8.35
2023-04-20T07:47:56.196Z,8.70
2023-04-20T07:50:22.682Z,8.43
2023-04-20T07:52:49.124Z,8.48
2023-04-20T07:55:15.529Z,8.27
2023-04-20T07:57:43.301Z,9.02
2023-04-20T08:00:10.962Z,8.43
2023-04-20T08:02:37.471Z,7.57
2023-04-20T08:05:04.855Z,8.38
2023-04-20T08:07:31.450Z,8.27
2023-04-20T08:09:57.829Z,7.90
2023-04-20T08:12:24.188Z,7.93
2023-04-20T08:14:51.945Z,8.35
2023-04-20T08:17:18.388Z,8.50
2023-04-20T08:19:46.067Z,7.53
2023-04-20T08:22:13.030Z,8.77
2023-04-20T08:24:39.461Z,7.00
2023-04-20T08:27:07.950Z,7.95
2023-04-20T08:29:34.456Z,8.63
2023-04-20T08:32:03.374Z,8.23
2023-04-20T08:34:29.889Z,6.75
2023-04-20T08:36:56.341Z,6.88
2023-04-20T08:39:22.740Z,7.68
2023-04-20T08:41:49.409Z,7.35
2023-04-20T08:44:16.039Z,7.38
2023-04-20T08:46:47.379Z,7.05
2023-04-20T08:49:16.208Z,6.85
2023-04-20T08:51:43.261Z,7.40
2023-04-20T08:54:10.836Z,6.32
2023-04-20T08:56:38.637Z,6.63
2023-04-20T08:59:05.743Z,7.88
2023-04-20T09:01:35.675Z,6.60
2023-04-20T09:04:03.590Z,7.90
2023-04-20T09:06:31.438Z,8.15
2023-04-20T09:08:57.819Z,6.80
2023-04-20T09:11:25.390Z,7.60
2023-04-20T09:13:59.301Z,7.18
2023-04-20T09:16:25.817Z,7.30
2023-04-20T09:18:52.827Z,7.88
2023-04-20T09:21:19.248Z,6.75
2023-04-20T09:23:55.874Z,6.38
2023-04-20T09:26:22.257Z,6.53
2023-04-20T09:28:48.622Z,6.70
2023-04-20T09:31:18.369Z,6.95
2023-04-20T09:33:44.976Z,6.28
2023-04-20T09:36:11.346Z,6.85
2023-04-20T09:38:37.773Z,6.40
2023-04-20T09:41:06.638Z,7.32
2023-04-20T09:43:35.157Z,6.40
2023-04-20T09:46:03.254Z,6.25
2023-04-20T09:48:32.115Z,7.10
2023-04-20T09:51:01.845Z,7.07
2023-04-20T09:53:30.460Z,6.25
2023-04-20T09:55:58.034Z,5.38
2023-04-20T09:58:25.766Z,6.35
2023-04-20T10:00:52.272Z,5.30
2023-04-20T10:03:20.223Z,5.43
2023-04-20T10:05:47.156Z,6.13
2023-04-20T10:08:13.685Z,5.80
2023-04-20T10:10:44.905Z,6.18
2023-04-20T10:13:11.464Z,6.35
2023-04-20T10:15:40.518Z,6.57
2023-04-20T10:18:17.907Z,6.13
2023-04-20T10:20:45.065Z,6.47
2023-04-20T10:23:11.730Z,5.57
2023-04-20T10:25:38.118Z,6.13
2023-04-20T10:28:05.822Z,6.45
2023-04-20T10:30:33.584Z,6.22
2023-04-20T10:33:06.414Z,6.70
2023-04-20T10:35:45.898Z,6.57
2023-04-20T10:38:13.036Z,6.63
2023-04-20T10:40:39.603Z,6.47
2023-04-20T10:43:17.989Z,5.90
2023-04-20T10:45:44.418Z,6.82
2023-04-20T10:48:12.443Z,6.03
2023-04-20T10:50:39.401Z,7.00
2023-04-20T10:53:06.011Z,6.85
2023-04-20T10:55:32.467Z,6.93
2023-04-20T10:57:58.849Z,6.00
2023-04-20T11:00:27.892Z,7.40
2023-04-20T11:02:55.526Z,6.43
2023-04-20T11:05:27.167Z,6.38
2023-04-20T11:07:54.509Z,6.18
2023-04-20T11:10:22.046Z,6.20
2023-04-20T11:12:48.563Z,6.70
2023-04-20T11:15:14.968Z,6.10
2023-04-20T11:17:41.436Z,6.03
2023-04-20T11:20:09.877Z,5.07
2023-04-20T11:22:38.068Z,5.95
2023-04-20T11:25:04.920Z,6.15
2023-04-20T11:27:31.356Z,6.38
2023-04-20T11:29:58.379Z,5.97
2023-04-20T11:32:25.836Z,5.88
2023-04-20T11:35:05.941Z,6.18
2023-04-20T11:37:33.750Z,6.57
2023-04-20T11:40:02.210Z,5.22
2023-04-20T11:42:28.587Z,5.15
2023-04-20T11:44:55.599Z,5.28
2023-04-20T11:47:22.031Z,5.65
2023-04-20T11:49:48.445Z,6.30
2023-04-20T11:52:14.850Z,6.00
2023-04-20T11:54:41.308Z,5.50
2023-04-20T11:57:09.084Z,6.45
2023-04-20T11:59:35.456Z,6.30
2023-04-20T12:02:01.980Z,5.68
2023-04-20T12:04:28.634Z,5.32
2023-04-20T12:06:55.203Z,5.60
2023-04-20T12:09:21.639Z,4.72
2023-04-20T12:11:48.066Z,5.35
2023-04-20T12:14:15.755Z,5.30
2023-04-20T12:16:42.181Z,5.00
2023-04-20T12:19:08.682Z,5.40
2023-04-20T12:21:35.134Z,6.72
2023-04-20T12:24:01.582Z,5.30
2023-04-20T12:26:37.336Z,5.47
2023-04-20T12:29:05.037Z,5.70
2023-04-20T12:31:32.924Z,6.03
2023-04-20T12:33:59.332Z,5.65
2023-04-20T12:36:25.968Z,5.90
2023-04-20T12:38:52.383Z,5.53
2023-04-20T12:41:18.789Z,5.15
2023-04-20T12:43:45.175Z,5.00
2023-04-20T12:46:11.559Z,4.72
2023-04-20T12:48:39.264Z,4.93
2023-04-20T12:51:05.880Z,5.75
2023-04-20T12:53:32.343Z,6.15
2023-04-20T12:56:01.398Z,5.20
2023-04-20T12:58:28.168Z,5.13
2023-04-20T13:00:55.172Z,5.70
2023-04-20T13:03:21.852Z,5.32
2023-04-20T13:05:50.066Z,5.90
2023-04-20T13:08:16.674Z,5.35
2023-04-20T13:10:43.211Z,5.68
2023-04-20T13:13:10.787Z,5.35
2023-04-20T13:15:39.179Z,5.63
2023-04-20T13:18:06.619Z,5.30
2023-04-20T13:20:33.238Z,4.97
2023-04-20T13:23:02.167Z,4.90
2023-04-20T13:25:29.992Z,5.47
2023-04-20T13:27:56.879Z,5.55
2023-04-20T13:30:24.642Z,6.28
2023-04-20T13:32:51.448Z,4.65
2023-04-20T13:35:18.635Z,5.82
2023-04-20T13:37:45.634Z,5.85
2023-04-20T13:40:13.747Z,6.43
2023-04-20T13:42:40.274Z,7.00
2023-04-20T13:45:08.534Z,6.85
2023-04-20T13:47:35.058Z,6.22
2023-04-20T13:50:01.683Z,6.28
2023-04-20T13:52:28.157Z,6.63
2023-04-20T13:54:54.522Z,6.38
2023-04-20T13:57:22.357Z,6.97
2023-04-20T13:59:48.869Z,7.35
2023-04-20T14:02:15.482Z,6.93
2023-04-20T14:04:42.085Z,7.55
2023-04-20T14:07:08.488Z,8.20
2023-04-20T14:09:34.878Z,8.00
2023-04-20T14:12:01.356Z,8.90
2023-04-20T14:14:29.103Z,8.65
2023-04-20T14:16:55.490Z,8.60
2023-04-20T14:19:21.940Z,8.63
2023-04-20T14:21:48.342Z,8.57
2023-04-20T14:24:14.726Z,7.88
2023-04-20T14:26:41.157Z,7.50
2023-04-20T14:29:07.612Z,8.30
2023-04-20T14:31:35.428Z,7.95
2023-04-20T14:34:02.030Z,8.18
2023-04-20T14:36:28.656Z,8.20
2023-04-20T14:38:55.000Z,8.63
2023-04-20T14:41:21.690Z,9.35
2023-04-20T14:43:48.114Z,8.02
2023-04-20T14:46:14.516Z,8.27
2023-04-20T14:48:42.634Z,8.73
2023-04-20T14:51:09.031Z,9.07
2023-04-20T14:53:35.418Z,10.05
2023-04-20T14:56:01.980Z,10.25
2023-04-20T14:58:28.429Z,10.68
2023-04-20T15:00:54.958Z,11.15
2023-04-20T15:03:21.743Z,10.52
2023-04-20T15:05:49.849Z,10.60
2023-04-20T15:08:16.348Z,10.00
2023-04-20T15:10:42.851Z,9.15
2023-04-20T15:13:09.205Z,8.68
2023-04-20T15:15:47.490Z,8.88
2023-04-20T15:18:14.974Z,7.55
2023-04-20T15:20:41.419Z,8.20
2023-04-20T15:23:09.232Z,7.18
2023-04-20T15:25:35.654Z,5.88
2023-04-20T15:28:02.012Z,5.22
2023-04-20T15:30:29.461Z,6.18
2023-04-20T15:32:55.946Z,5.93
2023-04-20T15:35:31.242Z,6.80
2023-04-20T15:37:57.662Z,6.60
2023-04-20T15:40:25.607Z,6.70
2023-04-20T15:42:51.975Z,6.65
2023-04-20T15:45:18.638Z,7.63
2023-04-20T15:47:48.115Z,7.72
2023-04-20T15:50:14.565Z,7.85
2023-04-20T15:52:40.960Z,9.15
2023-04-20T15:55:10.407Z,8.73
2023-04-20T15:57:38.088Z,10.77
2023-04-20T16:00:05.691Z,10.75
2023-04-20T16:02:32.271Z,11.43
2023-04-20T16:04:59.128Z,11.93
2023-04-20T16:07:25.619Z,13.90
2023-04-20T16:09:51.999Z,13.90
2023-04-20T16:12:18.433Z,13.02
2023-04-20T16:14:46.243Z,14.43
2023-04-20T16:17:12.669Z,14.25
2023-04-20T16:19:39.014Z,14.50
2023-04-20T16:22:05.437Z,12.98
2023-04-20T16:24:31.809Z,15.02
2023-04-20T16:26:58.320Z,13.45
2023-04-20T16:29:24.746Z,14.40
2023-04-20T16:31:52.583Z,13.57
2023-04-20T16:34:19.249Z,12.57
2023-04-20T16:36:45.845Z,13.43
2023-04-20T16:39:12.317Z,13.05
2023-04-20T16:41:38.712Z,15.23
2023-04-20T16:44:05.116Z,13.02
2023-04-20T16:46:31.548Z,14.20
2023-04-20T16:48:59.357Z,13.10
2023-04-20T16:51:25.832Z,13.27
2023-04-20T16:53:52.551Z,13.48
2023-04-20T16:56:18.947Z,14.02
2023-04-20T16:58:45.359Z,13.50
2023-04-20T17:01:13.086Z,11.80
2023-04-20T17:03:39.606Z,12.57
2023-04-20T17:06:07.806Z,12.63
2023-04-20T17:08:34.237Z,13.07
2023-04-20T17:11:00.683Z,12.32
2023-04-20T17:13:27.116Z,12.35
2023-04-20T17:15:53.546Z,12.77
2023-04-20T17:18:19.970Z,13.32
2023-04-20T17:20:46.416Z,11.77
2023-04-20T17:23:16.465Z,11.80
2023-04-20T17:25:42.973Z,12.02
2023-04-20T17:28:09.405Z,12.80
2023-04-20T17:30:35.835Z,11.40
2023-04-20T17:33:02.299Z,12.18
2023-04-20T17:35:28.853Z,11.68
2023-04-20T17:37:55.289Z,11.65
2023-04-20T17:40:23.013Z,11.85
2023-04-20T17:42:49.437Z,10.60
2023-04-20T17:45:15.839Z,10.77
2023-04-20T17:47:42.316Z,11.05
2023-04-20T17:50:10.615Z,11.23
2023-04-20T17:52:37.073Z,11.60
2023-04-20T17:55:03.893Z,12.25
2023-04-20T17:57:31.674Z,11.40
2023-04-20T17:59:58.109Z,11.55
2023-04-20T18:02:24.666Z,10.82
2023-04-20T18:04:51.412Z,11.80
2023-04-20T18:07:18.193Z,12.10
2023-04-20T18:09:44.679Z,10.68
2023-04-20T18:12:11.105Z,12.05
2023-04-20T18:14:39.461Z,12.30
2023-04-20T18:17:05.912Z,11.68
2023-04-20T18:19:32.346Z,11.48
2023-04-20T18:21:58.846Z,12.88
2023-04-20T18:24:25.334Z,12.52
2023-04-20T18:26:51.985Z,12.15
2023-04-20T18:29:18.482Z,11.82
2023-04-20T18:31:46.216Z,11.82
2023-04-20T18:34:12.729Z,13.00
2023-04-20T18:36:39.146Z,12.23
2023-04-20T18:39:05.622Z,12.18
2023-04-20T18:41:31.992Z,12.10
2023-04-20T18:43:58.377Z,12.68
2023-04-20T18:46:24.871Z,12.45
2023-04-20T18:48:52.805Z,11.95
2023-04-20T18:51:19.234Z,12.30
2023-04-20T18:53:45.803Z,11.30
2023-04-20T18:56:12.267Z,12.60
2023-04-20T18:58:38.667Z,12.20
2023-04-20T19:01:05.157Z,12.32
2023-04-20T19:03:31.829Z,13.35
2023-04-20T19:05:59.635Z,13.05
2023-04-20T19:08:26.026Z,13.23
2023-04-20T19:10:52.687Z,14.05
2023-04-20T19:13:19.086Z,12.55
2023-04-20T19:15:45.460Z,12.38
2023-04-20T19:18:11.978Z,14.30
2023-04-20T19:20:38.420Z,14.02
2023-04-20T19:23:06.118Z,12.98
2023-04-20T19:25:33.117Z,12.65
2023-04-20T19:27:59.493Z,14.05
2023-04-20T19:30:25.916Z,13.95
2023-04-20T19:32:52.497Z,14.38
2023-04-20T19:35:18.900Z,13.38
2023-04-20T19:37:45.305Z,15.20
2023-04-20T19:40:13.262Z,14.18
2023-04-20T19:42:39.639Z,13.68
2023-04-20T19:45:07.160Z,13.10
2023-04-20T19:47:33.629Z,13.93
2023-04-20T19:50:01.120Z,13.88
2023-04-20T19:52:29.398Z,13.45
2023-04-20T19:54:55.792Z,15.65
2023-04-20T19:57:23.527Z,13.63
2023-04-20T19:59:50.006Z,13.35
2023-04-20T20:02:16.579Z,14.15
2023-04-20T20:04:43.217Z,15.25
2023-04-20T20:07:09.657Z,14.02
2023-04-20T20:09:36.099Z,15.82
2023-04-20T20:12:02.724Z,16.10
2023-04-20T20:14:30.688Z,15.07
2023-04-20T20:16:57.207Z,13.75
2023-04-20T20:19:23.815Z,14.63
2023-04-20T20:21:50.312Z,15.75
2023-04-20T20:24:17.089Z,13.70
2023-04-20T20:26:43.585Z,12.95
2023-04-20T20:29:10.054Z,14.25
2023-04-20T20:31:38.174Z,13.43
2023-04-20T20:34:05.076Z,14.10
2023-04-20T20:36:32.641Z,14.45
2023-04-20T20:38:59.741Z,14.10
2023-04-20T20:41:26.547Z,15.30
2023-04-20T20:43:52.991Z,13.98
2023-04-20T20:46:19.428Z,15.00
2023-04-20T20:48:47.314Z,15.40
2023-04-20T20:51:13.705Z,15.82
2023-04-20T20:53:40.282Z,16.27
2023-04-20T20:56:07.263Z,14.55
2023-04-20T20:58:33.665Z,14.23
2023-04-20T21:01:00.184Z,16.63
2023-04-20T21:03:26.874Z,14.75
2023-04-20T21:05:54.880Z,14.70
2023-04-20T21:08:21.293Z,16.52
2023-04-20T21:10:47.800Z,15.25
2023-04-20T21:13:14.164Z,16.15
2023-04-20T21:15:40.620Z,16.50
2023-04-20T21:18:07.103Z,15.50
2023-04-20T21:20:33.656Z,15.40
2023-04-20T21:23:01.501Z,15.82
2023-04-20T21:25:27.980Z,15.55
2023-04-20T21:27:54.384Z,16.48
2023-04-20T21:30:20.983Z,17.00
2023-04-20T21:32:47.413Z,16.33
2023-04-20T21:35:13.814Z,15.98
2023-04-20T21:37:40.257Z,15.63
2023-04-20T21:40:09.508Z,16.15
2023-04-20T21:42:35.955Z,17.00
2023-04-20T21:45:02.673Z,16.70
2023-04-20T21:47:29.082Z,16.30
2023-04-20T21:49:55.489Z,17.63
2023-04-20T21:52:21.945Z,17.33
2023-04-20T21:54:48.356Z,17.90
2023-04-20T21:57:16.109Z,18.58
2023-04-20T21:59:42.549Z,17.13
2023-04-20T22:02:08.986Z,18.25
2023-04-20T22:04:35.599Z,19.42
2023-04-20T22:07:02.150Z,18.98
2023-04-20T22:09:28.563Z,18.70
2023-04-20T22:11:54.951Z,18.27
2023-04-20T22:14:22.700Z,19.80
2023-04-20T22:16:49.123Z,18.52
2023-04-20T22:19:15.608Z,20.08
2023-04-20T22:21:42.100Z,18.17
2023-04-20T22:24:08.488Z,18.38
2023-04-20T22:26:34.955Z,17.85
2023-04-20T22:29:01.418Z,17.52
2023-04-20T22:31:29.191Z,19.00
2023-04-20T22:33:55.621Z,18.67
2023-04-20T22:36:22.050Z,19.35
2023-04-20T22:38:48.426Z,17.98
2023-04-20T22:41:17.149Z,18.73
2023-04-20T22:43:43.894Z,19.27
2023-04-20T22:46:10.316Z,18.63
2023-04-20T22:48:38.031Z,18.30
2023-04-20T22:51:04.860Z,18.60
2023-04-20T22:53:31.222Z,17.88
2023-04-20T22:56:03.327Z,18.17
2023-04-20T22:58:29.767Z,18.15
2023-04-20T23:00:56.163Z,19.33
2023-04-20T23:03:22.684Z,19.42
2023-04-20T23:05:50.603Z,18.75
2023-04-20T23:08:17.031Z,17.98
2023-04-20T23:10:43.453Z,18.83
2023-04-20T23:13:09.877Z,19.38
2023-04-20T23:15:36.232Z,19.40
2023-04-20T23:18:02.662Z,18.77
2023-04-20T23:20:29.171Z,18.83
2023-04-20T23:22:56.866Z,18.45
2023-04-20T23:25:23.293Z,18.73
2023-04-20T23:27:49.699Z,18.20
2023-04-20T23:30:16.314Z,18.45
2023-04-20T23:32:44.565Z,18.35
2023-04-20T23:35:11.337Z,18.38
2023-04-20T23:37:37.702Z,17.60
2023-04-20T23:40:08.049Z,18.85
2023-04-20T23:42:35.490Z,19.17
2023-04-20T23:45:01.846Z,18.48
2023-04-20T23:47:28.260Z,17.92
2023-04-20T23:49:54.681Z,17.27
2023-04-20T23:52:21.072Z,17.08
2023-04-20T23:54:47.484Z,18.52
2023-04-20T23:57:15.348Z,16.85
2023-04-20T23:59:41.886Z,17.70
